createdAt,value
2022-12-14T00:02:57.872Z,67.50
2022-12-14T00:06:00.875Z,67.40
2022-12-14T00:09:06.686Z,67.40
2022-12-14T00:12:10.340Z,67.40
2022-12-14T00:15:13.511Z,67.30
2022-12-14T00:18:22.243Z,67.00
2022-12-14T00:21:26.895Z,66.90
2022-12-14T00:24:31.232Z,67.00
2022-12-14T00:27:34.494Z,67.00
2022-12-14T00:30:37.414Z,66.30
2022-12-14T00:33:41.162Z,66.80
2022-12-14T00:36:44.244Z,67.20
2022-12-14T00:39:48.589Z,66.70
2022-12-14T00:42:51.514Z,66.60
2022-12-14T00:45:55.243Z,66.50
2022-12-14T00:48:58.251Z,66.50
2022-12-14T00:52:01.258Z,66.30
2022-12-14T00:55:06.815Z,66.30
2022-12-14T00:58:13.070Z,66.20
2022-12-14T01:01:16.265Z,66.10
2022-12-14T01:04:19.566Z,66.00
2022-12-14T01:07:22.609Z,66.10
2022-12-14T01:10:27.103Z,66.30
2022-12-14T01:13:30.237Z,66.50
2022-12-14T01:16:33.333Z,67.30
2022-12-14T01:19:36.336Z,66.80
2022-12-14T01:22:39.483Z,67.50
2022-12-14T01:25:43.916Z,67.20
2022-12-14T01:28:56.030Z,67.10
2022-12-14T01:31:58.981Z,67.10
2022-12-14T01:35:01.866Z,67.10
2022-12-14T01:38:04.923Z,67.00
2022-12-14T01:41:24.971Z,67.10
2022-12-14T01:44:56.616Z,67.10
2022-12-14T01:48:03.586Z,67.10
2022-12-14T01:51:07.087Z,67.00
2022-12-14T01:54:13.753Z,67.10
2022-12-14T01:57:21.545Z,67.20
2022-12-14T02:00:25.079Z,67.20
2022-12-14T02:03:33.205Z,67.10
2022-12-14T02:06:40.670Z,67.10
2022-12-14T02:09:46.014Z,67.20
2022-12-14T02:12:56.820Z,67.50
2022-12-14T02:15:59.995Z,66.70
2022-12-14T02:19:03.234Z,66.60
2022-12-14T02:22:43.825Z,65.80
2022-12-14T02:26:40.502Z,66.50
2022-12-14T02:30:08.540Z,66.70
2022-12-14T02:33:39.372Z,66.90
2022-12-14T02:36:52.872Z,67.00
2022-12-14T02:40:10.815Z,67.20
2022-12-14T02:43:26.008Z,67.30
2022-12-14T02:46:43.268Z,67.30
2022-12-14T02:50:10.034Z,67.20
2022-12-14T02:53:23.486Z,66.50
2022-12-14T02:56:36.699Z,66.80
2022-12-14T02:59:40.305Z,66.70
2022-12-14T03:02:47.814Z,66.70
2022-12-14T03:05:59.270Z,66.50
2022-12-14T03:09:09.113Z,66.30
2022-12-14T03:12:16.206Z,66.40
2022-12-14T03:15:24.326Z,66.30
2022-12-14T03:18:36.992Z,66.80
2022-12-14T03:21:50.511Z,66.10
2022-12-14T03:24:59.531Z,66.10
2022-12-14T03:28:10.050Z,65.80
2022-12-14T03:31:18.601Z,66.50
2022-12-14T03:34:30.717Z,65.90
2022-12-14T03:37:41.333Z,65.90
2022-12-14T03:40:55.599Z,65.90
2022-12-14T03:44:16.501Z,65.90
2022-12-14T03:47:43.566Z,65.80
2022-12-14T03:50:59.587Z,65.60
2022-12-14T03:54:16.017Z,65.60
2022-12-14T03:57:38.714Z,65.60
2022-12-14T04:00:53.115Z,65.50
2022-12-14T04:04:04.798Z,65.20
2022-12-14T04:07:18.642Z,65.10
2022-12-14T04:10:45.516Z,65.00
2022-12-14T04:14:15.508Z,65.10
2022-12-14T04:17:43.301Z,65.70
2022-12-14T04:20:52.810Z,65.30
2022-12-14T04:24:20.885Z,65.10
2022-12-14T04:27:33.043Z,65.40
2022-12-14T04:30:41.228Z,65.30
2022-12-14T04:33:53.935Z,65.20
2022-12-14T04:37:00.895Z,65.30
2022-12-14T04:40:10.337Z,65.10
2022-12-14T04:43:20.593Z,64.90
2022-12-14T04:46:28.893Z,64.60
2022-12-14T04:49:40.043Z,65.10
2022-12-14T04:52:49.229Z,65.60
2022-12-14T04:56:06.855Z,65.20
2022-12-14T04:59:10.687Z,65.30
2022-12-14T05:02:32.756Z,65.40
2022-12-14T05:05:45.262Z,65.50
2022-12-14T05:09:14.075Z,65.50
2022-12-14T05:12:26.942Z,66.30
2022-12-14T05:15:36.019Z,65.50
2022-12-14T05:18:39.346Z,65.50
2022-12-14T05:21:48.528Z,65.50
2022-12-14T05:24:51.638Z,65.40
2022-12-14T05:27:56.028Z,65.40
2022-12-14T05:30:59.076Z,65.30
2022-12-14T05:34:02.096Z,65.50
2022-12-14T05:37:05.137Z,65.70
2022-12-14T05:40:10.546Z,65.60
2022-12-14T05:43:14.985Z,65.90
2022-12-14T05:46:18.353Z,66.20
2022-12-14T05:49:21.413Z,66.50
2022-12-14T05:52:26.772Z,66.80
2022-12-14T05:55:29.875Z,66.80
2022-12-14T05:58:35.843Z,66.70
2022-12-14T06:01:38.876Z,66.70
2022-12-14T06:04:41.893Z,66.90
2022-12-14T06:07:44.947Z,66.70
2022-12-14T06:10:47.987Z,67.00
2022-12-14T06:13:52.875Z,66.80
2022-12-14T06:16:55.908Z,66.80
2022-12-14T06:19:58.886Z,66.90
2022-12-14T06:23:01.958Z,66.80
2022-12-14T06:26:05.226Z,66.60
2022-12-14T06:29:16.519Z,66.60
2022-12-14T06:32:19.524Z,66.70
2022-12-14T06:35:22.465Z,66.70
2022-12-14T06:38:25.427Z,66.90
2022-12-14T06:41:28.423Z,66.90
2022-12-14T06:44:32.774Z,67.00
2022-12-14T06:47:35.950Z,67.20
2022-12-14T06:50:39.235Z,68.10
2022-12-14T06:53:42.284Z,68.10
2022-12-14T06:56:47.796Z,67.80
2022-12-14T06:59:52.261Z,67.80
2022-12-14T07:02:55.611Z,67.80
2022-12-14T07:05:59.799Z,67.60
2022-12-14T07:09:05.259Z,67.50
2022-12-14T07:12:08.564Z,67.30
2022-12-14T07:15:13.213Z,68.00
2022-12-14T07:18:16.168Z,67.10
2022-12-14T07:21:21.345Z,66.90
2022-12-14T07:24:24.270Z,66.90
2022-12-14T07:27:27.326Z,67.10
2022-12-14T07:30:31.715Z,65.90
2022-12-14T07:33:35.785Z,66.40
2022-12-14T07:36:39.317Z,66.60
2022-12-14T07:39:42.360Z,67.50
2022-12-14T07:42:49.336Z,66.60
2022-12-14T07:45:53.741Z,66.70
2022-12-14T07:48:59.216Z,67.00
2022-12-14T07:52:02.271Z,67.30
2022-12-14T07:55:06.241Z,67.30
2022-12-14T07:58:09.123Z,67.50
2022-12-14T08:01:16.640Z,67.80
2022-12-14T08:04:21.003Z,67.30
2022-12-14T08:07:24.435Z,67.50
2022-12-14T08:10:27.700Z,67.40
2022-12-14T08:13:31.750Z,67.50
2022-12-14T08:16:36.683Z,67.60
2022-12-14T08:19:39.729Z,67.50
2022-12-14T08:22:42.769Z,67.30
2022-12-14T08:25:46.131Z,67.30
2022-12-14T08:28:49.481Z,67.30
2022-12-14T08:31:56.678Z,67.20
2022-12-14T08:34:59.685Z,67.40
2022-12-14T08:38:02.886Z,67.40
2022-12-14T08:41:07.993Z,67.50
2022-12-14T08:44:12.972Z,67.30
2022-12-14T08:47:17.387Z,67.10
2022-12-14T08:50:20.471Z,67.10
2022-12-14T08:53:23.628Z,67.00
2022-12-14T08:56:28.866Z,66.40
2022-12-14T09:00:00.097Z,67.00
2022-12-14T09:02:56.243Z,67.20
2022-12-14T09:06:04.520Z,67.10
2022-12-14T09:09:15.585Z,67.00
2022-12-14T09:12:19.280Z,67.00
2022-12-14T09:15:22.394Z,66.90
2022-12-14T09:18:27.628Z,67.20
2022-12-14T09:21:31.595Z,67.30
2022-12-14T09:24:34.836Z,67.10
2022-12-14T09:27:37.871Z,67.10
2022-12-14T09:30:40.845Z,67.00
2022-12-14T09:33:45.168Z,66.90
2022-12-14T09:36:48.392Z,67.10
2022-12-14T09:39:51.337Z,67.30
2022-12-14T09:43:03.473Z,67.60
2022-12-14T09:46:31.495Z,67.60
2022-12-14T09:49:43.209Z,67.80
2022-12-14T09:52:51.470Z,67.30
2022-12-14T09:55:57.840Z,67.20
2022-12-14T09:59:03.734Z,67.40
2022-12-14T10:02:36.995Z,67.90
2022-12-14T10:06:10.843Z,67.40
2022-12-14T10:09:23.493Z,67.40
2022-12-14T10:12:45.708Z,67.20
2022-12-14T10:16:04.962Z,67.00
2022-12-14T10:19:27.542Z,67.00
2022-12-14T10:22:39.844Z,67.00
2022-12-14T10:25:46.877Z,67.10
2022-12-14T10:29:01.545Z,67.40
2022-12-14T10:32:20.076Z,66.60
2022-12-14T10:35:32.796Z,67.10
2022-12-14T10:38:50.529Z,67.20
2022-12-14T10:42:03.907Z,67.00
2022-12-14T10:45:40.267Z,67.10
2022-12-14T10:48:54.839Z,67.10
2022-12-14T10:52:04.433Z,67.10
2022-12-14T10:55:17.471Z,67.20
2022-12-14T10:58:20.493Z,67.30
2022-12-14T11:01:23.536Z,67.20
2022-12-14T11:04:34.643Z,67.20
2022-12-14T11:07:42.913Z,67.10
2022-12-14T11:10:47.332Z,66.90
2022-12-14T11:13:53.566Z,66.80
2022-12-14T11:16:56.884Z,66.80
2022-12-14T11:20:17.768Z,66.90
2022-12-14T11:23:25.887Z,67.10
2022-12-14T11:26:36.345Z,66.70
2022-12-14T11:29:41.072Z,66.90
2022-12-14T11:32:49.288Z,67.00
2022-12-14T11:35:53.501Z,67.10
2022-12-14T11:38:57.784Z,67.10
2022-12-14T11:42:04.765Z,67.20
2022-12-14T11:45:31.746Z,67.30
2022-12-14T11:48:38.370Z,67.00
2022-12-14T11:52:03.702Z,67.50
2022-12-14T11:55:14.108Z,67.70
2022-12-14T11:58:23.856Z,67.40
2022-12-14T12:01:28.252Z,67.10
2022-12-14T12:04:31.796Z,67.10
2022-12-14T12:07:39.200Z,66.90
2022-12-14T12:10:50.078Z,67.60
2022-12-14T12:14:01.505Z,67.00
2022-12-14T12:17:20.041Z,66.40
2022-12-14T12:20:35.389Z,67.60
2022-12-14T12:23:44.807Z,67.10
2022-12-14T12:26:52.889Z,67.30
2022-12-14T12:30:09.276Z,67.30
2022-12-14T12:33:27.582Z,67.20
2022-12-14T12:36:34.399Z,67.20
2022-12-14T12:39:43.053Z,67.10
2022-12-14T12:42:50.939Z,67.10
2022-12-14T12:46:00.913Z,67.00
2022-12-14T12:49:13.332Z,66.90
2022-12-14T12:52:24.073Z,66.80
2022-12-14T12:55:29.881Z,67.00
2022-12-14T12:58:36.678Z,66.90
2022-12-14T13:01:48.019Z,66.80
2022-12-14T13:04:54.110Z,66.90
2022-12-14T13:08:01.733Z,67.00
2022-12-14T13:11:31.327Z,66.90
2022-12-14T13:14:42.066Z,67.50
2022-12-14T13:17:51.865Z,67.00
2022-12-14T13:20:57.202Z,67.00
2022-12-14T13:24:00.787Z,67.00
2022-12-14T13:27:56.824Z,67.10
2022-12-14T13:31:18.081Z,67.20
2022-12-14T13:34:41.690Z,67.20
2022-12-14T13:38:12.709Z,67.50
2022-12-14T13:41:32.002Z,67.60
2022-12-14T13:44:57.204Z,67.20
2022-12-14T13:48:00.426Z,67.50
2022-12-14T13:51:08.280Z,67.50
2022-12-14T13:54:27.557Z,67.50
2022-12-14T13:57:30.750Z,67.40
2022-12-14T14:00:56.442Z,67.10
2022-12-14T14:04:23.052Z,67.30
2022-12-14T14:07:53.097Z,67.30
2022-12-14T14:11:13.918Z,67.30
2022-12-14T14:14:40.792Z,67.40
2022-12-14T14:17:46.925Z,67.50
2022-12-14T14:20:58.756Z,67.50
2022-12-14T14:24:21.358Z,67.60
2022-12-14T14:27:27.471Z,67.60
2022-12-14T14:30:37.561Z,67.80
2022-12-14T14:33:48.843Z,67.50
2022-12-14T14:36:52.846Z,67.70
2022-12-14T14:40:33.474Z,67.60
2022-12-14T14:43:52.735Z,67.70
2022-12-14T14:46:58.437Z,67.70
2022-12-14T14:50:05.492Z,67.70
2022-12-14T14:53:29.030Z,67.70
2022-12-14T14:56:43.164Z,67.80
2022-12-14T15:00:00.861Z,67.20
2022-12-14T15:03:06.448Z,67.60
2022-12-14T15:06:16.203Z,67.60
2022-12-14T15:09:24.675Z,67.80
2022-12-14T15:12:42.220Z,67.40
2022-12-14T15:15:47.493Z,67.00
2022-12-14T15:18:50.554Z,67.40
2022-12-14T15:21:58.163Z,67.50
2022-12-14T15:25:03.165Z,67.50
2022-12-14T15:28:09.202Z,67.40
2022-12-14T15:31:12.403Z,67.40
2022-12-14T15:34:19.061Z,67.00
2022-12-14T15:37:29.882Z,66.90
2022-12-14T15:40:34.244Z,67.50
2022-12-14T15:43:45.686Z,67.40
2022-12-14T15:46:55.459Z,67.50
2022-12-14T15:50:25.345Z,67.30
2022-12-14T15:53:34.157Z,67.30
2022-12-14T15:56:41.384Z,67.30
2022-12-14T15:59:49.319Z,67.20
2022-12-14T16:02:53.420Z,67.10
2022-12-14T16:05:57.796Z,67.00
2022-12-14T16:09:06.889Z,67.00
2022-12-14T16:12:20.274Z,66.70
2022-12-14T16:15:27.746Z,66.30
2022-12-14T16:18:30.751Z,66.20
2022-12-14T16:21:36.390Z,66.50
2022-12-14T16:24:54.694Z,65.80
2022-12-14T16:27:58.125Z,65.60
2022-12-14T16:31:07.082Z,65.40
2022-12-14T16:34:17.076Z,65.10
2022-12-14T16:37:35.650Z,65.10
2022-12-14T16:40:42.162Z,65.20
2022-12-14T16:43:59.872Z,65.20
2022-12-14T16:47:39.359Z,64.90
2022-12-14T16:51:02.925Z,64.80
2022-12-14T16:54:23.126Z,65.90
2022-12-14T16:57:26.257Z,65.20
2022-12-14T17:00:32.632Z,65.20
2022-12-14T17:03:38.630Z,65.10
2022-12-14T17:06:48.428Z,65.10
2022-12-14T17:09:51.769Z,64.90
2022-12-14T17:12:58.743Z,65.10
2022-12-14T17:16:05.848Z,65.10
2022-12-14T17:19:21.292Z,65.00
2022-12-14T17:22:27.747Z,64.70
2022-12-14T17:25:33.252Z,64.90
2022-12-14T17:28:36.441Z,65.50
2022-12-14T17:31:44.579Z,64.90
2022-12-14T17:34:54.615Z,64.60
2022-12-14T17:37:58.374Z,64.90
2022-12-14T17:41:01.838Z,64.30
2022-12-14T17:44:05.374Z,64.60
2022-12-14T17:47:12.435Z,64.30
2022-12-14T17:50:18.935Z,64.20
2022-12-14T17:53:30.401Z,63.90
2022-12-14T17:56:35.082Z,63.80
2022-12-14T17:59:39.881Z,63.70
2022-12-14T18:02:46.558Z,63.70
2022-12-14T18:05:52.169Z,63.80
2022-12-14T18:08:55.159Z,63.60
2022-12-14T18:12:22.076Z,63.50
2022-12-14T18:15:25.584Z,63.50
2022-12-14T18:18:29.479Z,63.30
2022-12-14T18:21:33.966Z,63.50
2022-12-14T18:24:36.960Z,62.10
2022-12-14T18:27:40.012Z,63.70
2022-12-14T18:30:49.615Z,63.10
2022-12-14T18:33:53.755Z,63.70
2022-12-14T18:36:58.153Z,63.00
2022-12-14T18:40:01.170Z,62.90
2022-12-14T18:43:04.745Z,62.90
2022-12-14T18:46:07.807Z,62.90
2022-12-14T18:49:10.816Z,62.80
2022-12-14T18:52:15.154Z,62.40
2022-12-14T18:55:21.429Z,62.70
2022-12-14T18:58:27.601Z,62.90
2022-12-14T19:01:30.896Z,63.00
2022-12-14T19:04:33.960Z,63.20
2022-12-14T19:07:38.370Z,63.20
2022-12-14T19:10:45.348Z,63.20
2022-12-14T19:13:48.354Z,63.30
2022-12-14T19:16:51.297Z,63.30
2022-12-14T19:19:54.434Z,63.20
2022-12-14T19:22:58.866Z,63.10
2022-12-14T19:26:02.358Z,63.00
2022-12-14T19:29:05.343Z,62.90
2022-12-14T19:32:08.441Z,62.80
2022-12-14T19:35:11.493Z,62.70
2022-12-14T19:38:17.433Z,62.90
2022-12-14T19:41:21.339Z,63.00
2022-12-14T19:44:24.368Z,63.10
2022-12-14T19:47:27.457Z,63.20
2022-12-14T19:50:30.402Z,63.40
2022-12-14T19:53:36.173Z,63.50
2022-12-14T19:56:39.337Z,63.30
2022-12-14T19:59:42.796Z,63.30
2022-12-14T20:02:45.952Z,63.60
2022-12-14T20:05:55.986Z,63.00
2022-12-14T20:09:02.107Z,63.20
2022-12-14T20:12:06.014Z,62.70
2022-12-14T20:15:09.681Z,62.70
2022-12-14T20:18:13.462Z,62.70
2022-12-14T20:21:22.078Z,62.70
2022-12-14T20:24:26.942Z,62.70
2022-12-14T20:27:33.800Z,62.80
2022-12-14T20:30:45.386Z,62.80
2022-12-14T20:33:48.674Z,62.90
2022-12-14T20:36:52.332Z,63.20
2022-12-14T20:40:07.064Z,63.10
2022-12-14T20:43:10.210Z,63.20
2022-12-14T20:46:29.066Z,63.30
2022-12-14T20:49:32.810Z,62.80
2022-12-14T20:52:35.923Z,62.80
2022-12-14T20:55:40.266Z,63.70
2022-12-14T20:58:48.128Z,63.50
2022-12-14T21:01:55.893Z,63.70
2022-12-14T21:04:59.648Z,64.80
2022-12-14T21:08:02.671Z,65.30
2022-12-14T21:11:21.096Z,64.40
2022-12-14T21:14:27.469Z,63.80
2022-12-14T21:17:31.843Z,63.40
2022-12-14T21:20:34.986Z,63.20
2022-12-14T21:23:38.059Z,62.90
2022-12-14T21:26:42.980Z,63.50
2022-12-14T21:29:46.429Z,63.40
2022-12-14T21:32:49.424Z,63.30
2022-12-14T21:35:52.487Z,63.00
2022-12-14T21:38:56.370Z,63.10
2022-12-14T21:42:15.271Z,63.00
2022-12-14T21:45:18.813Z,63.00
2022-12-14T21:48:21.909Z,63.00
2022-12-14T21:51:24.822Z,62.60
2022-12-14T21:54:27.993Z,62.30
2022-12-14T21:57:50.830Z,62.00
2022-12-14T22:00:53.991Z,62.50
2022-12-14T22:03:56.947Z,62.10
2022-12-14T22:07:00.977Z,62.00
2022-12-14T22:10:04.289Z,62.20
2022-12-14T22:13:09.748Z,62.30
2022-12-14T22:16:12.730Z,62.90
2022-12-14T22:19:18.006Z,62.20
2022-12-14T22:22:21.034Z,62.10
2022-12-14T22:25:24.023Z,62.10
2022-12-14T22:28:28.344Z,62.00
2022-12-14T22:31:31.456Z,62.10
2022-12-14T22:34:34.514Z,62.30
2022-12-14T22:37:37.457Z,62.50
2022-12-14T22:40:40.883Z,61.70
2022-12-14T22:43:45.937Z,61.70
2022-12-14T22:46:49.864Z,61.50
2022-12-14T22:49:52.841Z,61.50
2022-12-14T22:52:56.056Z,61.40
2022-12-14T22:56:07.944Z,61.40
2022-12-14T22:59:16.888Z,61.60
2022-12-14T23:02:20.198Z,61.60
2022-12-14T23:05:23.410Z,61.50
2022-12-14T23:08:26.548Z,61.80
2022-12-14T23:11:47.196Z,61.30
2022-12-14T23:15:09.182Z,61.20
2022-12-14T23:18:29.895Z,61.00
2022-12-14T23:21:50.586Z,61.20
2022-12-14T23:25:11.378Z,60.90
2022-12-14T23:28:32.188Z,61.70
2022-12-14T23:31:54.255Z,61.00
2022-12-14T23:35:14.947Z,61.10
2022-12-14T23:38:35.643Z,61.00
2022-12-14T23:41:56.715Z,61.00
2022-12-14T23:45:17.683Z,61.60
2022-12-14T23:48:39.793Z,61.50
2022-12-14T23:52:00.616Z,60.90
2022-12-14T23:55:21.512Z,60.90
2022-12-14T23:58:42.336Z,61.30
